METAR Data
IDs: Format: Raw Decoded Include TAF

Data at: 0613 UTC 03 Jul 2022

KPAE 030604Z AUTO 02006KT 10SM BKN023 14/11 A2993 RMK AO2 T01390111

KPAE 030540Z 0306/0406 35007KT P6SM SCT030 SCT250
  FM031000 19005KT P6SM SHRA SCT007 OVC010
  FM031400 18006KT P6SM VCSH OVC007
  FM031800 21007KT P6SM -SHRA OVC015


KAWO 030556Z AUTO 01005KT 10SM BKN120 13/11 A2994 RMK AO2 SLP140 T01330111 10200 20133 51010
No TAF found for KAWO

KBFI 030553Z 00000KT 10SM FEW035 SCT055 BKN110 17/13 A2992 RMK AO2 SLP131 T01670128 10194 20167 53010

KBFI 030540Z 0306/0406 22005KT P6SM SCT030 SCT200
  FM030900 18005KT P6SM VCSH OVC018
  FM031400 17006KT P6SM VCSH OVC010
  FM031900 20006KT P6SM -SHRA OVC022


KRNT 030553Z AUTO 21005KT 10SM OVC038 18/12 A2991 RMK AO2 SLP132 T01780122 10206 20178 51008
No TAF found for KRNT

KSEA 030553Z 23007KT 10SM FEW023 BKN049 16/12 A2992 RMK AO2 SLP138 T01560117 10189 20156 53008 $

KSEA 030540Z 0306/0412 22008KT P6SM SCT030 SCT200
  FM030900 21005KT P6SM VCSH OVC015
  FM031400 21006KT P6SM VCSH OVC008
  FM031900 21008KT P6SM -SHRA OVC020